Time;durP1;ratioP1;P1;durP2;ratioP2;P2;SDS_P1;SDS_P2;PMS_P1;PMS_P2;Temp;Humidity;BMP_temperature;BMP_pressure;BME280_temperature;BME280_humidity;BME280_pressure;Samples;Min_cycle;Max_cycle;Signal;HPM_P1;HPM_P2
2021/05/07 00:01:01;;;;;;;10.28;4.20;;;;;;;3.58;72.23;99809.82;1761847;80;20300;-71
2021/05/07 00:03:30;;;;;;;;;;;;;;;3.52;72.99;99809.92;1756216;81;21120;-72
2021/05/07 00:05:59;;;;;;;6.67;4.00;;;;;;;3.47;73.07;99820.81;1749382;80;20256;-73
2021/05/07 00:08:29;;;;;;;8.93;4.47;;;;;;;3.40;73.25;99815.27;1758529;80;21297;-72
2021/05/07 00:10:57;;;;;;;7.12;3.90;;;;;;;3.36;73.57;99811.02;1766354;80;21135;-73
2021/05/07 00:13:27;;;;;;;11.48;4.90;;;;;;;3.34;73.80;99817.97;1748839;80;21113;-73
2021/05/07 00:15:56;;;;;;;10.32;4.70;;;;;;;3.31;73.85;99821.89;1752609;80;21140;-76
2021/05/07 00:18:24;;;;;;;10.03;4.78;;;;;;;3.29;73.51;99827.55;1742811;80;21209;-77
2021/05/07 00:20:52;;;;;;;10.80;4.90;;;;;;;3.27;73.15;99820.23;1759278;80;21288;-76
2021/05/07 00:23:22;;;;;;;11.93;5.08;;;;;;;3.26;73.10;99821.09;1754920;80;21147;-75
2021/05/07 00:25:51;;;;;;;9.33;4.20;;;;;;;3.27;73.50;99822.84;1767270;80;21125;-74
2021/05/07 00:28:20;;;;;;;16.30;5.15;;;;;;;3.25;72.47;99812.44;1758685;80;22146;-74
2021/05/07 00:30:48;;;;;;;8.68;4.58;;;;;;;3.25;72.71;99816.78;1765138;81;21147;-73
2021/05/07 00:33:16;;;;;;;8.18;4.62;;;;;;;3.27;72.79;99812.42;1758728;80;21396;-73
2021/05/07 00:35:44;;;;;;;11.80;3.85;;;;;;;3.26;72.58;99810.69;1757465;80;21574;-73
2021/05/07 00:38:14;;;;;;;8.13;4.37;;;;;;;3.22;72.52;99809.00;1750441;80;21120;-73
2021/05/07 00:40:43;;;;;;;10.15;4.25;;;;;;;3.20;72.72;99812.05;1726947;82;21136;-74
2021/05/07 00:43:13;;;;;;;10.38;4.10;;;;;;;3.18;72.57;99803.44;1766059;80;21163;-73
2021/05/07 00:45:42;;;;;;;7.45;4.03;;;;;;;3.11;72.41;99797.44;1750224;80;21449;-72
2021/05/07 00:48:16;;;;;;;10.03;3.85;;;;;;;3.09;72.44;99797.45;1756701;80;21176;-74
2021/05/07 00:50:46;;;;;;;8.05;4.17;;;;;;;3.08;72.26;99794.84;1756431;80;21217;-71
2021/05/07 00:53:17;;;;;;;9.70;3.92;;;;;;;3.07;72.38;99798.34;1763829;80;21128;-73
2021/05/07 00:55:45;;;;;;;10.68;4.65;;;;;;;3.05;72.30;99797.05;1724129;80;21170;-73
2021/05/07 00:58:16;;;;;;;9.98;4.62;;;;;;;3.01;72.33;99790.16;1748600;80;21364;-73
2021/05/07 01:00:44;;;;;;;10.70;5.22;;;;;;;2.96;72.33;99791.10;1750521;80;21232;-72
2021/05/07 01:03:13;;;;;;;10.60;4.62;;;;;;;2.95;72.73;99791.55;1766072;80;21163;-74
2021/05/07 01:05:41;;;;;;;11.80;4.95;;;;;;;2.91;73.42;99787.25;1772213;80;21183;-74
2021/05/07 01:08:12;;;;;;;7.15;4.70;;;;;;;2.88;73.44;99792.05;1750346;80;21316;-74
2021/05/07 01:10:42;;;;;;;7.77;4.73;;;;;;;2.85;73.57;99792.52;1757978;80;21388;-73
2021/05/07 01:13:11;;;;;;;7.17;4.05;;;;;;;2.85;73.15;99796.41;1766208;80;21195;-73
2021/05/07 01:15:45;;;;;;;10.15;4.10;;;;;;;2.82;73.59;99804.26;1765597;80;21476;-74
2021/05/07 01:18:13;;;;;;;9.93;4.17;;;;;;;2.80;73.83;99803.41;1764794;80;21167;-74
2021/05/07 01:20:42;;;;;;;13.05;5.03;;;;;;;2.80;74.36;99799.52;1750771;80;21175;-73
2021/05/07 01:23:12;;;;;;;10.03;4.40;;;;;;;2.79;74.25;99799.95;1750938;80;21363;-73
2021/05/07 01:25:43;;;;;;;13.15;5.33;;;;;;;2.76;73.78;99797.81;1763119;80;21564;-73
2021/05/07 01:28:14;;;;;;;19.35;6.22;;;;;;;2.73;73.47;99795.66;1752519;80;22275;-76
2021/05/07 01:30:44;;;;;;;11.97;5.25;;;;;;;2.71;73.96;99796.14;1752863;80;21224;-74
2021/05/07 01:33:16;;;;;;;10.32;5.35;;;;;;;2.70;74.22;99797.01;1807438;78;21588;-75
2021/05/07 01:35:46;;;;;;;9.68;5.20;;;;;;;2.65;73.72;99792.30;1796525;79;21445;-75
2021/05/07 01:38:16;;;;;;;10.75;4.87;;;;;;;2.65;73.60;99800.09;1789168;79;21200;-74
2021/05/07 01:40:49;;;;;;;12.18;5.12;;;;;;;2.62;73.00;99795.35;1791239;79;21216;-72
2021/05/07 01:43:18;;;;;;;8.35;4.42;;;;;;;2.60;73.39;99795.39;1760497;79;21205;-73
2021/05/07 01:45:48;;;;;;;8.23;3.95;;;;;;;2.55;73.80;99790.65;1793394;79;21119;-75
2021/05/07 01:48:18;;;;;;;7.33;4.43;;;;;;;2.55;73.80;99790.65;1794522;79;21184;-75
2021/05/07 01:50:48;;;;;;;7.00;4.00;;;;;;;2.55;73.99;99788.05;1791760;79;21169;-75
2021/05/07 01:53:16;;;;;;;6.15;3.80;;;;;;;2.50;74.66;99787.23;1789651;79;22184;-75
2021/05/07 01:55:47;;;;;;;9.20;4.62;;;;;;;2.49;74.82;99799.83;1782675;79;21178;-76
2021/05/07 01:58:17;;;;;;;7.12;4.03;;;;;;;2.49;74.82;99799.83;1791618;79;21417;-75
2021/05/07 02:00:47;;;;;;;9.20;5.53;;;;;;;2.44;74.77;99793.78;1784549;79;21350;-75
2021/05/07 02:03:16;;;;;;;7.00;4.10;;;;;;;2.40;74.62;99803.81;1785268;79;21054;-75
2021/05/07 02:05:47;;;;;;;9.60;5.10;;;;;;;2.36;74.82;99799.52;1798569;79;21134;-74
2021/05/07 02:08:15;;;;;;;10.58;5.40;;;;;;;2.35;75.20;99799.06;1807153;79;21110;-73
2021/05/07 02:10:45;;;;;;;10.43;5.42;;;;;;;2.30;74.69;99802.59;1791343;79;21234;-73
2021/05/07 02:13:14;;;;;;;13.83;5.67;;;;;;;2.28;74.41;99806.94;1781017;79;22363;-74
2021/05/07 02:15:44;;;;;;;14.50;5.85;;;;;;;2.27;75.31;99810.84;1799488;79;21235;-75
2021/05/07 02:18:13;;;;;;;13.70;5.60;;;;;;;2.26;75.06;99807.38;1761074;80;21187;-74
2021/05/07 02:20:44;;;;;;;8.88;5.22;;;;;;;2.27;74.83;99816.03;1751189;81;21657;-74
2021/05/07 02:23:14;;;;;;;10.48;4.80;;;;;;;2.28;74.97;99817.33;1760874;80;21623;-75
2021/05/07 02:25:42;;;;;;;11.50;5.00;;;;;;;2.26;74.78;99815.18;1762458;80;21285;-72
2021/05/07 02:28:12;;;;;;;10.03;5.43;;;;;;;2.27;74.93;99822.09;1749732;81;21508;-71
2021/05/07 02:30:41;;;;;;;9.73;5.30;;;;;;;2.25;75.06;99821.23;1760231;80;21249;-73
2021/05/07 02:33:10;;;;;;;9.03;5.20;;;;;;;2.25;74.85;99823.83;1748807;80;21265;-72
2021/05/07 02:35:39;;;;;;;15.60;4.92;;;;;;;2.26;74.65;99826.88;1749461;80;21211;-74
2021/05/07 02:38:09;;;;;;;13.80;6.22;;;;;;;2.27;75.30;99825.98;1764250;80;22371;-75
2021/05/07 02:40:39;;;;;;;15.98;5.62;;;;;;;2.29;75.70;99826.84;1764971;79;21713;-72
2021/05/07 02:43:10;;;;;;;14.05;5.90;;;;;;;2.36;75.73;99822.90;1763227;80;21175;-72
2021/05/07 02:45:40;;;;;;;12.73;6.25;;;;;;;2.36;75.73;99822.90;1741223;80;21176;-73
2021/05/07 02:48:09;;;;;;;11.95;6.33;;;;;;;2.42;75.78;99829.35;1749269;81;21210;-74
2021/05/07 02:50:37;;;;;;;10.78;6.10;;;;;;;2.47;75.60;99834.06;1765314;80;22049;-74
2021/05/07 02:53:07;;;;;;;14.45;6.65;;;;;;;2.51;75.74;99829.27;1770521;80;21151;-72
2021/05/07 02:55:35;;;;;;;18.30;9.05;;;;;;;2.63;75.93;99829.59;1766110;80;22268;-72
2021/05/07 02:58:04;;;;;;;12.30;5.75;;;;;;;2.63;75.93;99829.59;1752706;80;21217;-74
2021/05/07 03:00:33;;;;;;;12.75;5.92;;;;;;;2.70;76.00;99833.86;1761330;80;21278;-73
2021/05/07 03:03:01;;;;;;;11.53;5.78;;;;;;;2.78;76.25;99835.06;1752512;81;21355;-73
2021/05/07 03:05:30;;;;;;;8.28;4.97;;;;;;;2.86;76.45;99833.27;1750993;80;21187;-73
2021/05/07 03:08:01;;;;;;;13.78;5.97;;;;;;;2.98;76.75;99833.13;1750473;80;21655;-74
2021/05/07 03:10:29;;;;;;;12.55;6.30;;;;;;;3.12;77.05;99828.63;1763619;80;21202;-75
2021/05/07 03:12:58;;;;;;;9.05;5.45;;;;;;;3.29;76.89;99836.25;1802513;79;21178;-74
2021/05/07 03:15:28;;;;;;;11.18;6.30;;;;;;;3.47;76.58;99827.33;1784099;79;22856;-74
2021/05/07 03:17:56;;;;;;;16.10;6.60;;;;;;;3.71;76.84;99833.11;1796788;79;21215;-76
2021/05/07 03:20:24;;;;;;;18.27;7.53;;;;;;;3.93;76.09;99828.02;1788254;79;21197;-74
2021/05/07 03:22:53;;;;;;;16.15;7.03;;;;;;;4.14;74.60;99825.95;1778331;79;21245;-79
2021/05/07 03:25:21;;;;;;;15.13;6.17;;;;;;;4.31;73.92;99822.64;1786314;79;21159;-77
2021/05/07 03:27:49;;;;;;;15.38;6.35;;;;;;;4.43;73.73;99814.20;1793849;79;21372;-77
2021/05/07 03:30:17;;;;;;;15.65;6.80;;;;;;;4.56;73.57;99819.18;1791768;79;21237;-78
2021/05/07 03:32:45;;;;;;;11.30;6.67;;;;;;;4.77;73.16;99823.15;1787115;79;21164;-78
2021/05/07 03:35:13;;;;;;;12.15;6.65;;;;;;;5.01;72.59;99817.05;1746597;80;21581;-78
2021/05/07 03:37:42;;;;;;;17.05;6.70;;;;;;;5.36;72.53;99824.61;1736823;82;21230;-76
2021/05/07 03:40:12;;;;;;;13.25;6.28;;;;;;;6.08;71.60;99826.55;1734851;80;22601;-75
2021/05/07 03:42:40;;;;;;;13.13;6.78;;;;;;;6.89;69.87;99828.02;1762721;80;21207;-74
2021/05/07 03:45:09;;;;;;;14.87;6.00;;;;;;;7.67;67.95;99821.88;1755226;81;21210;-73
2021/05/07 03:47:39;;;;;;;14.40;6.70;;;;;;;8.46;65.35;99816.81;1754904;81;21158;-73
2021/05/07 03:50:10;;;;;;;13.88;6.40;;;;;;;9.17;63.37;99821.79;1762203;81;21214;-74
2021/05/07 03:52:38;;;;;;;12.53;6.90;;;;;;;9.82;60.94;99821.11;1765247;81;21516;-77
2021/05/07 03:55:08;;;;;;;12.40;7.15;;;;;;;10.07;58.22;99819.66;1765094;81;21218;-76
2021/05/07 03:57:37;;;;;;;19.70;8.30;;;;;;;9.94;57.24;99824.14;1756869;80;21135;-74
2021/05/07 04:00:07;;;;;;;14.13;7.92;;;;;;;9.77;57.59;99823.50;1762877;80;21265;-69
2021/05/07 04:02:37;;;;;;;20.23;8.18;;;;;;;9.72;55.79;99821.05;1769349;80;21218;-74
2021/05/07 04:05:05;;;;;;;15.30;8.50;;;;;;;9.98;55.22;99823.11;1812951;78;22664;-76
2021/05/07 04:07:34;;;;;;;18.50;8.30;;;;;;;10.28;54.41;99823.25;1805879;78;21269;-78
2021/05/07 04:10:07;;;;;;;17.42;8.20;;;;;;;10.87;52.74;99822.97;1805735;78;22152;-79
2021/05/07 04:15:07;;;;;;;16.75;8.10;;;;;;;11.85;48.76;99817.70;1795668;78;21630;-80
2021/05/07 04:17:35;;;;;;;;;;;;;;;12.22;47.26;99817.28;1818198;78;21384;-80
2021/05/07 04:20:05;;;;;;;16.85;6.60;;;;;;;12.59;45.82;99811.50;1797868;78;20627;-80
2021/05/07 04:22:33;;;;;;;15.85;7.00;;;;;;;12.94;45.99;99822.05;1811971;78;21196;-80
2021/05/07 04:25:01;;;;;;;11.48;6.75;;;;;;;13.14;42.49;99824.52;1775120;80;21210;-81
2021/05/07 04:27:30;;;;;;;12.90;6.28;;;;;;;13.29;40.94;99827.31;1754505;81;21186;-82
2021/05/07 04:29:58;;;;;;;16.17;7.25;;;;;;;13.33;42.18;99818.28;1751989;81;21214;-81
2021/05/07 04:32:26;;;;;;;23.35;7.62;;;;;;;13.17;42.69;99820.84;1752528;81;21004;-81
2021/05/07 04:34:54;;;;;;;16.17;8.53;;;;;;;12.91;42.50;99822.22;1752819;81;21189;-81
2021/05/07 04:37:22;;;;;;;20.00;11.00;;;;;;;12.73;39.69;99824.00;1735529;81;21197;-81
2021/05/07 04:39:50;;;;;;;25.75;11.95;;;;;;;12.40;40.98;99831.38;1731413;82;21202;-81
2021/05/07 04:42:18;;;;;;;23.47;10.65;;;;;;;12.11;41.42;99836.74;1735388;81;21377;-81
2021/05/07 04:44:47;;;;;;;21.68;10.38;;;;;;;12.15;41.71;99829.08;1744741;81;21205;-81
2021/05/07 04:47:14;;;;;;;19.70;9.43;;;;;;;12.23;42.43;99826.89;1762081;81;21158;-80
2021/05/07 04:49:44;;;;;;;15.10;8.23;;;;;;;12.26;42.07;99828.09;1762163;81;21203;-80
2021/05/07 04:52:12;;;;;;;17.15;7.85;;;;;;;12.55;41.67;99821.34;1762719;81;21193;-79
2021/05/07 04:54:40;;;;;;;14.47;7.08;;;;;;;13.15;40.76;99817.42;1746495;81;21680;-80
2021/05/07 04:57:08;;;;;;;14.53;6.58;;;;;;;13.67;40.13;99819.12;1746017;81;21669;-80
2021/05/07 04:59:36;;;;;;;13.15;6.10;;;;;;;14.04;37.85;99823.22;1746460;81;21209;-80
2021/05/07 05:02:04;;;;;;;11.97;6.10;;;;;;;14.42;38.81;99828.98;1746158;81;21189;-81
2021/05/07 05:04:33;;;;;;;10.90;5.62;;;;;;;14.92;37.41;99826.13;1754671;81;21194;-81
2021/05/07 05:07:01;;;;;;;17.95;5.53;;;;;;;14.87;35.04;99816.64;1753432;80;21366;-81
2021/05/07 05:09:30;;;;;;;17.80;5.80;;;;;;;14.48;37.03;99816.69;1738539;80;21087;-82
2021/05/07 05:11:58;;;;;;;15.15;5.80;;;;;;;13.99;35.64;99815.53;1774921;80;21100;-80
2021/05/07 05:14:26;;;;;;;14.47;6.03;;;;;;;13.59;36.75;99820.84;1775200;78;21131;-80
2021/05/07 05:16:53;;;;;;;14.40;6.08;;;;;;;13.28;38.06;99815.03;1774901;81;21123;-82
2021/05/07 05:19:21;;;;;;;12.33;5.83;;;;;;;13.14;38.12;99809.97;1774761;81;21802;-80
2021/05/07 05:21:50;;;;;;;15.68;5.50;;;;;;;13.10;38.46;99816.34;1774860;81;21206;-81
2021/05/07 05:24:18;;;;;;;13.85;5.53;;;;;;;13.52;38.39;99812.38;1774709;78;21171;-79
2021/05/07 05:26:47;;;;;;;10.70;5.28;;;;;;;14.14;37.46;99806.33;1771394;81;21107;-80
2021/05/07 05:29:15;;;;;;;8.13;4.42;;;;;;;14.73;36.51;99810.47;1746544;80;21195;-80
2021/05/07 05:31:44;;;;;;;15.43;4.85;;;;;;;15.24;34.74;99801.63;1774003;80;21338;-80
2021/05/07 05:34:12;;;;;;;9.65;4.03;;;;;;;15.65;34.73;99808.34;1773884;79;21186;-81
2021/05/07 05:36:46;;;;;;;8.60;4.17;;;;;;;16.03;33.10;99801.06;1750978;80;21195;-80
2021/05/07 05:39:11;;;;;;;11.20;4.08;;;;;;;16.29;32.80;99804.69;1725660;80;21132;-80
2021/05/07 05:41:40;;;;;;;11.45;4.70;;;;;;;16.57;32.87;99799.71;1763157;80;21163;-79
2021/05/07 05:44:09;;;;;;;9.00;4.20;;;;;;;16.65;32.45;99804.50;1746129;82;21658;-80
2021/05/07 05:46:37;;;;;;;10.32;3.98;;;;;;;16.58;32.09;99808.53;1745324;78;21022;-81
2021/05/07 05:49:06;;;;;;;8.73;3.52;;;;;;;16.70;32.67;99802.41;1738901;81;21183;-82
2021/05/07 05:51:35;;;;;;;8.23;3.62;;;;;;;16.51;31.91;99804.10;1742866;80;21254;-79
2021/05/07 05:54:03;;;;;;;9.08;3.62;;;;;;;16.28;33.04;99806.11;1738157;82;21205;-76
2021/05/07 05:56:31;;;;;;;9.20;3.77;;;;;;;16.14;32.78;99803.87;1760157;80;21846;-76
2021/05/07 05:58:59;;;;;;;10.10;4.62;;;;;;;16.36;32.47;99810.45;1755723;80;21219;-76
2021/05/07 06:01:28;;;;;;;12.50;3.20;;;;;;;16.70;32.37;99798.88;1760020;80;21083;-78
2021/05/07 06:03:55;;;;;;;12.05;2.92;;;;;;;17.18;29.94;99809.34;1760951;79;21250;-77
2021/05/07 06:06:24;;;;;;;5.12;2.50;;;;;;;17.48;28.72;99808.61;1767691;80;21174;-77
2021/05/07 06:08:52;;;;;;;6.37;2.55;;;;;;;17.58;27.70;99804.35;1768159;80;21361;-77
2021/05/07 06:11:20;;;;;;;6.28;2.35;;;;;;;17.71;27.26;99799.83;1768771;80;21195;-76
2021/05/07 06:13:49;;;;;;;6.42;2.80;;;;;;;17.91;26.92;99801.09;1772173;80;21208;-76
2021/05/07 06:16:18;;;;;;;11.80;2.60;;;;;;;18.16;26.80;99802.81;1764325;80;21198;-76
2021/05/07 06:18:47;;;;;;;5.75;2.33;;;;;;;18.48;26.33;99798.23;1762614;79;21162;-77
2021/05/07 06:21:14;;;;;;;5.05;2.00;;;;;;;18.51;24.78;99801.98;1762700;79;21813;-77
2021/05/07 06:23:43;;;;;;;4.70;1.67;;;;;;;18.29;24.45;99804.55;1771784;80;21155;-76
2021/05/07 06:26:11;;;;;;;7.30;2.17;;;;;;;17.97;23.72;99810.47;1766830;79;21187;-75
2021/05/07 06:28:39;;;;;;;7.30;2.10;;;;;;;17.45;24.21;99802.19;1772029;80;21202;-71
2021/05/07 06:31:07;;;;;;;11.57;1.87;;;;;;;17.14;25.53;99813.66;1772106;80;21142;-72
2021/05/07 06:33:35;;;;;;;6.80;2.40;;;;;;;17.06;25.95;99798.69;1765534;80;21330;-71
2021/05/07 06:36:04;;;;;;;6.33;2.22;;;;;;;17.03;27.21;99800.23;1750531;80;21586;-73
2021/05/07 06:38:33;;;;;;;7.00;2.08;;;;;;;17.08;25.26;99808.75;1779066;80;21269;-71
2021/05/07 06:41:01;;;;;;;6.97;2.20;;;;;;;16.86;25.92;99809.36;1744668;80;21154;-71
2021/05/07 06:43:30;;;;;;;4.17;1.92;;;;;;;16.74;27.18;99813.67;1753923;80;21609;-76
2021/05/07 06:45:58;;;;;;;9.58;2.62;;;;;;;16.61;27.20;99820.77;1772708;80;21191;-73
2021/05/07 06:48:26;;;;;;;5.17;2.10;;;;;;;16.50;27.66;99810.39;1772942;80;21190;-69
2021/05/07 06:50:54;;;;;;;7.17;2.27;;;;;;;16.38;27.82;99808.55;1768271;80;21194;-70
2021/05/07 06:53:22;;;;;;;8.25;2.67;;;;;;;16.42;27.26;99811.36;1775270;80;21165;-70
2021/05/07 06:55:50;;;;;;;6.83;2.33;;;;;;;16.32;27.79;99807.14;1777564;80;21646;-70
2021/05/07 06:58:20;;;;;;;8.23;2.60;;;;;;;16.06;27.93;99814.16;1770403;80;21461;-70
2021/05/07 07:00:48;;;;;;;11.10;2.27;;;;;;;15.90;29.05;99805.48;1774915;80;21187;-70
2021/05/07 07:03:17;;;;;;;4.20;2.17;;;;;;;15.76;29.05;99814.33;1793354;79;21252;-71
2021/05/07 07:05:44;;;;;;;5.08;2.27;;;;;;;15.62;30.31;99796.59;1804074;79;21194;-70
2021/05/07 07:08:12;;;;;;;9.90;2.33;;;;;;;15.55;29.81;99809.00;1800405;79;21137;-71
2021/05/07 07:10:40;;;;;;;6.10;2.52;;;;;;;15.45;30.18;99802.94;1798098;79;22175;-70
2021/05/07 07:13:08;;;;;;;6.87;2.52;;;;;;;15.44;31.80;99797.27;1800539;79;21669;-70
2021/05/07 07:15:37;;;;;;;9.18;2.72;;;;;;;15.46;30.29;99799.36;1803705;79;21594;-70
2021/05/07 07:18:05;;;;;;;7.33;2.35;;;;;;;15.53;29.99;99794.04;1800659;79;21145;-69
2021/05/07 07:20:33;;;;;;;8.78;2.12;;;;;;;15.55;29.16;99787.28;1799506;79;21192;-71
2021/05/07 07:23:01;;;;;;;5.70;2.10;;;;;;;15.58;29.65;99792.42;1798661;79;22727;-71
2021/05/07 07:25:30;;;;;;;4.80;2.12;;;;;;;15.52;29.65;99787.48;1802813;79;21653;-70
2021/05/07 07:27:59;;;;;;;5.78;2.55;;;;;;;15.51;29.81;99783.14;1805944;79;21407;-71
2021/05/07 07:30:26;;;;;;;14.75;2.55;;;;;;;15.53;29.78;99787.41;1798734;79;21196;-68
2021/05/07 07:32:54;;;;;;;7.53;2.60;;;;;;;15.57;30.77;99780.08;1802899;79;21209;-74
2021/05/07 07:35:23;;;;;;;8.60;2.37;;;;;;;15.58;30.07;99784.46;1800615;79;21810;-73
2021/05/07 07:37:51;;;;;;;4.83;2.25;;;;;;;15.49;29.88;99783.71;1804228;79;21178;-73
2021/05/07 07:40:19;;;;;;;10.43;2.87;;;;;;;15.51;30.37;99781.82;1800436;79;21170;-73
2021/05/07 07:42:47;;;;;;;14.00;2.70;;;;;;;15.60;30.17;99791.86;1779170;79;21206;-72
2021/05/07 07:45:15;;;;;;;7.12;2.22;;;;;;;15.61;30.38;99785.58;1795129;79;21204;-73
2021/05/07 07:47:44;;;;;;;16.87;2.52;;;;;;;15.54;29.71;99786.92;1801073;79;21361;-72
2021/05/07 07:50:13;;;;;;;5.53;2.33;;;;;;;15.50;30.82;99772.13;1795048;79;21217;-74
2021/05/07 07:52:41;;;;;;;8.53;2.95;;;;;;;15.49;30.42;99771.29;1797420;79;21629;-74
2021/05/07 07:55:10;;;;;;;8.75;2.50;;;;;;;15.49;30.70;99770.44;1797735;79;21181;-74
2021/05/07 07:57:42;;;;;;;12.78;2.87;;;;;;;15.46;30.77;99775.47;1798444;79;23730;-73
2021/05/07 08:00:11;;;;;;;8.13;2.40;;;;;;;15.48;31.46;99770.05;1797884;79;21434;-74
2021/05/07 08:02:41;;;;;;;12.30;2.80;;;;;;;15.45;30.63;99766.27;1791095;79;21465;-72
2021/05/07 08:05:10;;;;;;;10.80;2.83;;;;;;;15.41;31.37;99763.42;1772836;80;21134;-73
2021/05/07 08:07:41;;;;;;;10.48;2.58;;;;;;;15.45;31.20;99760.48;1773181;80;21206;-73
2021/05/07 08:10:09;;;;;;;4.97;2.00;;;;;;;15.45;30.12;99763.62;1773077;80;21130;-74
2021/05/07 08:12:38;;;;;;;4.85;1.50;;;;;;;15.40;30.19;99768.38;1751848;80;22297;-74
2021/05/07 08:15:07;;;;;;;5.97;1.77;;;;;;;15.35;29.95;99759.38;1773381;79;21190;-73
2021/05/07 08:17:36;;;;;;;7.53;2.27;;;;;;;15.41;30.14;99759.45;1773249;79;21182;-74
2021/05/07 08:23:43;;;;;;;7.60;1.62;;;;;;;15.45;30.21;99759.16;1782700;79;21225;-74
2021/05/07 08:26:12;;;;;;;10.15;2.00;;;;;;;15.57;30.71;99756.68;1776864;80;22269;-73
2021/05/07 08:28:40;;;;;;;5.42;1.60;;;;;;;15.57;30.69;99743.41;1707459;83;21199;-73
2021/05/07 08:31:08;;;;;;;7.10;3.02;;;;;;;15.65;30.46;99751.27;1706752;81;21651;-74
2021/05/07 08:33:38;;;;;;;3.83;1.70;;;;;;;15.62;30.48;99758.11;1720178;83;21214;-73
2021/05/07 08:36:06;;;;;;;8.93;2.00;;;;;;;15.49;30.30;99750.54;1721345;81;21162;-74
2021/05/07 08:38:33;;;;;;;6.87;1.87;;;;;;;15.43;30.20;99752.24;1720057;83;21447;-74
2021/05/07 08:41:04;;;;;;;6.08;2.02;;;;;;;15.44;30.37;99751.31;1712836;82;21226;-73
2021/05/07 08:43:32;;;;;;;4.20;1.70;;;;;;;15.47;30.89;99740.49;1720297;82;21471;-74
2021/05/07 08:46:06;;;;;;;8.93;1.47;;;;;;;15.58;31.12;99753.94;1720273;83;21207;-74
2021/05/07 08:48:38;;;;;;;5.03;1.70;;;;;;;15.61;30.62;99743.11;1721760;81;21212;-74
2021/05/07 08:51:07;;;;;;;5.35;2.08;;;;;;;15.56;30.83;99745.22;1720396;83;21656;-72
2021/05/07 08:53:35;;;;;;;8.00;1.90;;;;;;;15.59;31.97;99740.19;1719897;80;21266;-72
2021/05/07 08:56:06;;;;;;;5.62;1.85;;;;;;;15.59;31.92;99734.87;1732212;81;21713;-75
2021/05/07 08:58:35;;;;;;;7.17;1.60;;;;;;;15.51;30.77;99742.02;1742821;82;21184;-74
2021/05/07 09:01:04;;;;;;;6.37;1.42;;;;;;;15.48;30.68;99748.38;1769813;80;21198;-73
2021/05/07 09:03:45;;;;;;;7.15;2.00;;;;;;;15.45;31.32;99731.78;1771717;80;21812;-74
2021/05/07 09:06:19;;;;;;;8.55;1.80;;;;;;;15.45;31.13;99737.08;1753092;81;21194;-74
2021/05/07 09:08:51;;;;;;;7.97;1.50;;;;;;;15.47;31.41;99745.31;1752915;81;21620;-73
2021/05/07 09:11:18;;;;;;;;;;;;;;;15.44;31.34;99744.68;1735892;81;21767;-73
2021/05/07 09:13:46;;;;;;;2.02;1.22;;;;;;;15.37;32.08;99738.91;1725959;81;20315;-73
2021/05/07 09:16:14;;;;;;;7.50;1.77;;;;;;;15.37;32.03;99737.58;1747882;81;21379;-72
2021/05/07 09:18:51;;;;;;;6.72;1.95;;;;;;;15.42;32.28;99734.63;1747853;80;21296;-73
2021/05/07 09:21:19;;;;;;;5.28;2.02;;;;;;;15.53;33.62;99734.81;1742686;81;21154;-72
2021/05/07 09:23:51;;;;;;;5.78;1.90;;;;;;;15.67;34.53;99719.32;1733660;82;21677;-73
2021/05/07 09:26:18;;;;;;;4.42;1.45;;;;;;;15.81;33.00;99738.38;1745876;81;21193;-74
2021/05/07 09:29:02;;;;;;;3.58;1.60;;;;;;;15.89;32.20;99736.89;1714571;83;22384;-73
2021/05/07 09:31:29;;;;;;;4.53;1.65;;;;;;;15.89;33.15;99725.43;1713865;83;21214;-75
2021/05/07 09:34:03;;;;;;;15.45;2.45;;;;;;;15.88;32.79;99726.39;1743043;81;21158;-74
2021/05/07 09:36:32;;;;;;;3.85;1.60;;;;;;;15.85;32.67;99721.27;1731715;82;21195;-70
2021/05/07 09:39:00;;;;;;;3.80;1.45;;;;;;;16.05;33.10;99708.01;1702514;82;21178;-71
2021/05/07 09:41:47;;;;;;;3.25;1.32;;;;;;;16.30;32.70;99716.52;1736178;82;25732;-70
2021/05/07 09:44:21;;;;;;;9.00;1.62;;;;;;;16.39;31.74;99683.17;1737978;82;21303;-70
2021/05/07 09:46:52;;;;;;;7.20;1.47;;;;;;;16.39;31.50;99693.31;1734404;82;21211;-70
2021/05/07 09:49:31;;;;;;;7.83;1.85;;;;;;;16.32;31.67;99702.17;1732695;81;21166;-70
2021/05/07 09:52:00;;;;;;;10.43;1.77;;;;;;;16.28;32.00;99696.69;1734579;82;21205;-70
2021/05/07 09:54:28;;;;;;;6.22;1.20;;;;;;;16.35;31.82;99683.36;1729094;82;21504;-72
2021/05/07 09:56:56;;;;;;;2.70;1.40;;;;;;;16.54;32.73;99680.31;1731019;82;21607;-71
2021/05/07 09:59:23;;;;;;;6.33;1.52;;;;;;;16.70;32.42;99672.13;1722272;82;21660;-71
2021/05/07 10:01:52;;;;;;;13.25;2.00;;;;;;;16.82;32.27;99671.78;1728558;82;21189;-71
2021/05/07 10:04:20;;;;;;;9.00;1.55;;;;;;;16.82;32.02;99678.88;1723430;82;21219;-70
2021/05/07 10:06:48;;;;;;;17.07;1.80;;;;;;;16.70;31.86;99675.24;1710143;82;21437;-70
2021/05/07 10:09:24;;;;;;;8.43;1.82;;;;;;;16.62;31.95;99669.62;1704710;82;21538;-70
2021/05/07 10:11:54;;;;;;;4.47;1.50;;;;;;;16.56;32.29;99677.08;1715446;82;21457;-72
2021/05/07 10:14:24;;;;;;;2.58;1.40;;;;;;;16.45;32.54;99668.98;1703729;82;21232;-71
2021/05/07 10:16:52;;;;;;;5.08;1.62;;;;;;;16.22;32.33;99670.55;1686533;83;21195;-70
2021/05/07 10:19:21;;;;;;;8.78;1.37;;;;;;;16.09;32.86;99671.84;1700701;83;21388;-71
2021/05/07 10:21:51;;;;;;;7.55;1.90;;;;;;;15.98;33.34;99671.71;1706754;81;21190;-72
2021/05/07 10:24:19;;;;;;;6.20;1.52;;;;;;;15.95;33.31;99667.94;1719812;83;21186;-74
2021/05/07 10:26:52;;;;;;;4.35;1.67;;;;;;;15.90;33.12;99656.78;1709988;82;21197;-70
2021/05/07 10:29:26;;;;;;;9.40;1.67;;;;;;;15.91;33.51;99652.67;1717413;82;21630;-72
2021/05/07 10:31:55;;;;;;;4.30;1.87;;;;;;;15.89;33.28;99643.95;1725282;82;21793;-71
2021/05/07 10:34:26;;;;;;;10.28;1.55;;;;;;;15.89;33.46;99624.52;1733119;82;21218;-71
2021/05/07 10:36:57;;;;;;;5.87;2.35;;;;;;;15.91;33.45;99631.91;1734474;82;21175;-72
2021/05/07 10:39:32;;;;;;;5.50;3.00;;;;;;;15.86;33.77;99635.36;1713036;83;21305;-71
2021/05/07 10:42:01;;;;;;;4.55;1.60;;;;;;;15.81;33.64;99626.86;1725639;82;21131;-70
2021/05/07 10:44:42;;;;;;;5.47;1.57;;;;;;;15.77;33.62;99629.34;1732161;82;21411;-71
2021/05/07 10:47:10;;;;;;;5.40;1.90;;;;;;;15.79;33.63;99618.14;1730643;82;21179;-70
2021/05/07 10:49:44;;;;;;;4.20;1.40;;;;;;;15.85;33.43;99611.08;1739475;82;21170;-73
2021/05/07 10:55:50;;;;;;;4.35;1.47;;;;;;;16.12;33.73;99599.06;1741077;82;21893;-72
2021/05/07 10:58:36;;;;;;;3.72;1.52;;;;;;;16.38;33.11;99599.07;1740684;80;21262;-72
2021/05/07 11:01:21;;;;;;;4.25;1.62;;;;;;;16.51;32.33;99576.00;1740205;82;21166;-72
2021/05/07 11:04:11;;;;;;;6.03;1.10;;;;;;;16.70;32.35;99578.20;1743119;82;21569;-72
2021/05/07 11:06:47;;;;;;;5.37;1.40;;;;;;;16.89;31.76;99581.29;1749057;82;26932;-71
2021/05/07 11:09:23;;;;;;;10.20;1.30;;;;;;;17.01;31.87;99573.39;1749273;82;21163;-71
2021/05/07 11:11:53;;;;;;;10.63;1.70;;;;;;;17.09;31.47;99571.00;1749012;82;21380;-74
2021/05/07 11:14:24;;;;;;;7.58;1.77;;;;;;;17.15;31.03;99567.91;1749081;82;21713;-72
2021/05/07 11:18:09;;;;;;;4.67;1.55;;;;;;;17.27;31.22;99588.28;1779463;79;22811;-72
2021/05/07 11:20:45;;;;;;;4.20;1.37;;;;;;;17.29;31.12;99554.42;1748021;80;21207;-71
2021/05/07 11:23:13;;;;;;;4.67;1.40;;;;;;;17.29;30.26;99546.44;1740974;82;21369;-71
2021/05/07 11:29:34;;;;;;;3.20;1.52;;;;;;;17.42;30.07;99528.25;1748095;81;21127;-73
2021/05/07 11:32:18;;;;;;;8.75;1.40;;;;;;;17.67;29.68;99532.09;1742235;81;21202;-73
2021/05/07 11:34:51;;;;;;;6.72;1.80;;;;;;;17.86;29.09;99522.72;1752223;81;21167;-70
2021/05/07 11:37:21;;;;;;;4.35;1.80;;;;;;;17.87;28.93;99511.92;1752128;81;21348;-71
2021/05/07 11:40:00;;;;;;;15.90;1.42;;;;;;;17.93;29.50;99490.16;1751346;81;21162;-72
2021/05/07 11:42:42;;;;;;;5.40;1.40;;;;;;;17.98;29.29;99506.62;1751598;80;21178;-66
2021/05/07 11:45:19;;;;;;;7.37;1.85;;;;;;;17.95;29.09;99486.05;1744699;81;21740;-70
2021/05/07 11:47:48;;;;;;;8.03;1.70;;;;;;;17.96;29.48;99481.91;1731048;81;21210;-66
2021/05/07 11:50:21;;;;;;;13.93;2.02;;;;;;;18.06;29.63;99474.07;1719149;83;22303;-67
2021/05/07 11:52:50;;;;;;;10.55;1.50;;;;;;;18.02;28.85;99491.26;1744450;81;21752;-65
2021/05/07 11:55:24;;;;;;;12.93;1.85;;;;;;;17.90;29.48;99478.88;1728735;80;21195;-69
2021/05/07 11:58:07;;;;;;;6.95;1.70;;;;;;;17.87;30.12;99473.80;1697859;83;21800;-73
2021/05/07 12:00:38;;;;;;;8.05;1.40;;;;;;;17.93;29.59;99460.01;1672319;83;21163;-68